Indianola, Iowa
Current Conditions -  °F | °C
As of 5:54 PM on Friday 31 Oct 2014 (Local Time) from KDSM Reporting Station
Few Clouds Few Clouds  
Wind Chill: 35°   Ceiling: Unl
Heat Index: 41°   Visibility: 10mi
Dew Point: 17°   Wind: 9mph
Humidity: 38%   Direction: 10°N
Pressure: 30.46"   Gusts: NA
Location:  41.36°N, 93.56°W
Report Text: KDSM 312254Z 01008KT 10SM FEW250 05/M08 A3046 RMK AO2 SLP324 T00501083
Loading
Personal Weather Stations






























Interactive Weather Map New forecast layout! Learn more

10-Day Weather Forecast

Advertisements
Track Severe Weather on mobile